Time;durP1;ratioP1;P1;durP2;ratioP2;P2;SDS_P1;SDS_P2;PMS_P1;PMS_P2;Temp;Humidity;BMP_temperature;BMP_pressure;BME280_temperature;BME280_humidity;BME280_pressure;Samples;Min_cycle;Max_cycle;Signal;HPM_P1;HPM_P2
2022/05/24 00:02:17;;;;;;;10.85;5.78;;;14.40;99.90;;;;;;5026012;28;20045;-78
2022/05/24 00:04:43;;;;;;;11.68;6.40;;;14.40;99.90;;;;;;5025002;28;20045;-77
2022/05/24 00:07:08;;;;;;;11.70;6.65;;;14.40;99.90;;;;;;5029607;28;20477;-77
2022/05/24 00:09:34;;;;;;;14.77;7.05;;;14.30;99.90;;;;;;5029553;28;20092;-77
2022/05/24 00:12:00;;;;;;;10.43;6.53;;;14.30;99.90;;;;;;5026954;28;20412;-77
2022/05/24 00:17:10;;;;;;;11.73;8.00;;;14.30;99.90;;;;;;5026531;28;20049;-77
2022/05/24 00:19:35;;;;;;;13.52;7.88;;;14.30;99.90;;;;;;5061672;28;20098;-78
2022/05/24 00:22:01;;;;;;;11.98;8.65;;;14.20;99.90;;;;;;5028251;28;20060;-78
2022/05/24 00:24:27;;;;;;;14.77;8.50;;;14.20;99.90;;;;;;5024075;28;20447;-77
2022/05/24 00:26:53;;;;;;;15.45;8.88;;;14.10;99.90;;;;;;5061271;28;20037;-77
2022/05/24 00:29:18;;;;;;;12.25;8.73;;;14.00;99.90;;;;;;5029990;28;20504;-77
2022/05/24 00:31:50;;;;;;;12.40;8.35;;;14.00;99.90;;;;;;5026581;28;20056;-77
2022/05/24 00:34:15;;;;;;;15.18;7.45;;;14.00;99.90;;;;;;5026045;28;20057;-77
2022/05/24 00:36:41;;;;;;;11.90;6.30;;;13.90;99.90;;;;;;5054489;28;20049;-77
2022/05/24 00:39:06;;;;;;;10.43;5.95;;;13.80;99.90;;;;;;5028827;28;20038;-78
2022/05/24 00:41:40;;;;;;;11.48;6.10;;;13.80;99.90;;;;;;5030025;28;20045;-77
2022/05/24 00:44:18;;;;;;;8.63;5.70;;;13.70;99.90;;;;;;5029099;28;20037;-77
2022/05/24 00:46:55;;;;;;;12.80;6.43;;;13.60;99.90;;;;;;5028028;28;20149;-77
2022/05/24 00:49:30;;;;;;;7.88;5.45;;;13.60;99.90;;;;;;5029662;28;20042;-77
2022/05/24 00:52:08;;;;;;;11.57;5.32;;;13.50;99.90;;;;;;5023544;28;20527;-77
2022/05/24 00:54:34;;;;;;;10.40;5.95;;;13.40;99.90;;;;;;5028745;28;20041;-77
2022/05/24 00:57:34;;;;;;;10.20;6.05;;;13.40;99.90;;;;;;5027444;28;20091;-77
2022/05/24 01:00:09;;;;;;;7.88;5.68;;;13.30;99.90;;;;;;5029125;28;20045;-77
2022/05/24 01:02:36;;;;;;;8.23;5.55;;;13.30;99.90;;;;;;5028889;28;20172;-77
2022/05/24 01:05:04;;;;;;;12.15;6.40;;;13.30;99.90;;;;;;5025908;28;20058;-77
2022/05/24 01:07:29;;;;;;;10.75;6.50;;;13.20;99.90;;;;;;5059361;28;20050;-76
2022/05/24 01:09:58;;;;;;;12.57;6.30;;;13.20;99.90;;;;;;5019979;28;20054;-77
2022/05/24 01:12:50;;;;;;;9.90;6.20;;;13.10;99.90;;;;;;5024081;28;20042;-77
2022/05/24 01:15:17;;;;;;;10.07;5.97;;;13.00;99.90;;;;;;5020683;28;20049;-76
2022/05/24 01:17:44;;;;;;;9.80;5.65;;;13.00;99.90;;;;;;5025039;28;20482;-77
2022/05/24 01:20:10;;;;;;;10.38;6.35;;;13.00;99.90;;;;;;5026921;28;20045;-77
2022/05/24 01:23:02;;;;;;;10.23;6.28;;;13.00;99.90;;;;;;5027972;28;20408;-77
2022/05/24 01:26:11;;;;;;;10.73;6.57;;;13.00;99.90;;;;;;5024917;28;20128;-76
2022/05/24 01:28:40;;;;;;;10.40;6.70;;;13.00;99.90;;;;;;4983061;28;20138;-76
2022/05/24 01:31:06;;;;;;;9.10;5.45;;;12.90;99.90;;;;;;5017850;28;20045;-77
2022/05/24 01:36:18;;;;;;;13.23;7.32;;;12.80;99.90;;;;;;5028574;28;20724;-77
2022/05/24 01:39:00;;;;;;;10.05;6.57;;;12.80;99.90;;;;;;5019659;28;20042;-76
2022/05/24 01:41:35;;;;;;;10.73;6.82;;;12.80;99.90;;;;;;5029159;28;20050;-77
2022/05/24 01:44:02;;;;;;;11.85;7.13;;;12.70;99.90;;;;;;5025188;28;20042;-77
2022/05/24 01:46:35;;;;;;;10.82;6.70;;;12.70;99.90;;;;;;5024926;28;20089;-76
2022/05/24 01:49:08;;;;;;;11.82;6.63;;;12.70;99.90;;;;;;5030402;28;20127;-77
2022/05/24 01:51:40;;;;;;;11.13;6.45;;;12.70;99.90;;;;;;5026553;28;20053;-77
2022/05/24 01:54:07;;;;;;;11.18;5.90;;;12.70;99.90;;;;;;5031136;28;20049;-77
2022/05/24 01:56:41;;;;;;;10.30;5.88;;;12.70;99.90;;;;;;5013996;28;20128;-77
2022/05/24 01:59:09;;;;;;;13.00;7.25;;;12.70;99.90;;;;;;5029476;28;20489;-77
2022/05/24 02:01:46;;;;;;;11.45;6.72;;;12.70;99.90;;;;;;5028485;28;20100;-77
2022/05/24 02:04:12;;;;;;;12.75;6.22;;;12.70;99.90;;;;;;5030339;28;20554;-77
2022/05/24 02:06:38;;;;;;;12.38;6.07;;;12.70;99.90;;;;;;5025604;28;20038;-77
2022/05/24 02:09:06;;;;;;;10.80;6.63;;;12.70;99.90;;;;;;5026598;28;20081;-78
2022/05/24 02:11:33;;;;;;;12.00;6.70;;;12.80;99.90;;;;;;5022600;28;20096;-78
2022/05/24 02:14:19;;;;;;;13.88;6.45;;;12.80;99.90;;;;;;5024387;28;20103;-78
2022/05/24 02:17:00;;;;;;;13.80;6.38;;;12.90;99.90;;;;;;5054442;28;20087;-78
2022/05/24 02:19:32;;;;;;;10.27;5.85;;;12.90;99.90;;;;;;5024947;28;20152;-78
2022/05/24 02:22:03;;;;;;;9.98;6.47;;;12.90;99.90;;;;;;5056580;28;20080;-79
2022/05/24 02:24:28;;;;;;;10.85;6.65;;;12.90;99.90;;;;;;5017952;28;20045;-78
2022/05/24 02:26:58;;;;;;;10.27;5.75;;;13.00;99.90;;;;;;5017505;28;20054;-78
2022/05/24 02:29:24;;;;;;;11.05;5.70;;;13.00;99.90;;;;;;5027144;28;20045;-78
2022/05/24 02:31:51;;;;;;;8.18;5.88;;;13.00;99.90;;;;;;5027379;28;20143;-79
2022/05/24 02:34:16;;;;;;;10.38;6.05;;;13.00;99.90;;;;;;5021620;28;20053;-79
2022/05/24 02:36:42;;;;;;;9.98;6.13;;;13.10;99.90;;;;;;5027596;28;20056;-76
2022/05/24 02:39:08;;;;;;;10.20;6.15;;;13.00;99.90;;;;;;5021300;28;20045;-76
2022/05/24 02:41:36;;;;;;;10.90;6.72;;;13.00;99.90;;;;;;5025709;28;20392;-76
2022/05/24 02:44:05;;;;;;;11.77;7.35;;;13.10;99.90;;;;;;5018995;28;20041;-77
2022/05/24 02:46:32;;;;;;;12.05;8.20;;;13.10;99.90;;;;;;5049239;28;20045;-77
2022/05/24 02:48:59;;;;;;;13.68;8.48;;;13.10;99.90;;;;;;5024615;28;20112;-76
2022/05/24 02:51:26;;;;;;;13.43;8.38;;;13.10;99.90;;;;;;5026795;28;20049;-76
2022/05/24 02:53:52;;;;;;;14.52;8.88;;;13.10;99.90;;;;;;5019165;28;20125;-77
2022/05/24 02:56:18;;;;;;;15.93;10.50;;;13.10;99.90;;;;;;5025734;28;20489;-77
2022/05/24 02:58:44;;;;;;;14.02;9.65;;;13.10;99.90;;;;;;5023482;28;20045;-78
2022/05/24 03:01:19;;;;;;;16.13;10.68;;;13.10;99.90;;;;;;5026947;28;20045;-77
2022/05/24 03:03:47;;;;;;;13.85;10.82;;;13.20;99.90;;;;;;5027114;28;20050;-77
2022/05/24 03:06:13;;;;;;;15.93;9.77;;;13.20;99.90;;;;;;5026764;28;20037;-77
2022/05/24 03:11:23;;;;;;;16.90;12.18;;;13.20;99.90;;;;;;5057257;28;20746;-77
2022/05/24 03:16:36;;;;;;;18.58;13.25;;;13.20;99.90;;;;;;5029267;28;20157;-78
2022/05/24 03:19:02;;;;;;;23.20;14.02;;;13.20;99.90;;;;;;5030144;28;20140;-78
2022/05/24 03:21:27;;;;;;;22.80;15.82;;;13.30;99.90;;;;;;5029507;28;20049;-78
2022/05/24 03:23:53;;;;;;;24.15;14.73;;;13.30;99.90;;;;;;5029969;28;20091;-77
2022/05/24 03:26:18;;;;;;;24.13;15.18;;;13.30;99.90;;;;;;5026917;28;20526;-77
2022/05/24 03:28:46;;;;;;;25.55;17.63;;;13.30;99.90;;;;;;5030249;28;20124;-77
2022/05/24 03:31:13;;;;;;;25.73;17.58;;;13.30;99.90;;;;;;5031743;28;20104;-77
2022/05/24 03:33:38;;;;;;;25.45;17.55;;;13.30;99.90;;;;;;5028512;28;20057;-77
2022/05/24 03:36:04;;;;;;;27.27;17.33;;;13.30;99.90;;;;;;5031870;28;20064;-77
2022/05/24 03:38:30;;;;;;;26.02;18.35;;;13.40;99.90;;;;;;5029492;28;20056;-77
2022/05/24 03:40:56;;;;;;;27.55;19.80;;;13.40;99.90;;;;;;5027684;28;20053;-77
2022/05/24 03:43:22;;;;;;;29.65;19.67;;;13.30;99.90;;;;;;5022591;28;20069;-77
2022/05/24 03:45:48;;;;;;;29.92;20.25;;;13.40;99.90;;;;;;5060691;28;20087;-77
2022/05/24 03:48:14;;;;;;;29.58;20.50;;;13.40;99.90;;;;;;5031104;28;20378;-77
2022/05/24 03:50:40;;;;;;;36.40;22.80;;;13.40;99.90;;;;;;5029788;28;20144;-77
2022/05/24 03:53:05;;;;;;;31.48;21.85;;;13.80;99.90;;;;;;5026912;28;20394;-77
2022/05/24 03:55:31;;;;;;;32.90;22.38;;;13.40;99.90;;;;;;5029138;28;20173;-77
2022/05/24 03:58:00;;;;;;;39.60;25.08;;;13.50;99.90;;;;;;5058724;28;20054;-77
2022/05/24 04:00:27;;;;;;;35.38;24.00;;;13.50;99.90;;;;;;5027314;28;20052;-77
2022/05/24 04:02:53;;;;;;;34.45;22.20;;;13.50;99.90;;;;;;5028010;28;20045;-77
2022/05/24 04:05:18;;;;;;;36.08;23.23;;;13.60;99.90;;;;;;5030703;28;20477;-77
2022/05/24 04:07:44;;;;;;;34.22;23.17;;;13.50;99.90;;;;;;5029096;28;20041;-77
2022/05/24 04:10:12;;;;;;;35.42;23.40;;;13.60;99.90;;;;;;5029432;28;20079;-77
2022/05/24 04:12:38;;;;;;;32.83;22.33;;;13.60;99.90;;;;;;5030427;28;20393;-77
2022/05/24 04:15:04;;;;;;;34.45;23.60;;;13.60;99.90;;;;;;5029250;28;20038;-77
2022/05/24 04:17:29;;;;;;;35.88;25.33;;;13.60;99.90;;;;;;5029554;28;20196;-77
2022/05/24 04:19:55;;;;;;;31.98;22.98;;;13.60;99.90;;;;;;5028037;28;20499;-77
2022/05/24 04:22:21;;;;;;;33.97;23.85;;;13.70;99.90;;;;;;5029870;28;20049;-77
2022/05/24 04:24:46;;;;;;;34.85;23.95;;;13.70;99.90;;;;;;5023755;28;20067;-77
2022/05/24 04:27:12;;;;;;;34.75;22.98;;;13.70;99.90;;;;;;5029347;28;20049;-77
2022/05/24 04:29:40;;;;;;;29.35;23.10;;;13.80;99.90;;;;;;5028576;28;20052;-77
2022/05/24 04:32:06;;;;;;;29.98;21.67;;;13.80;99.90;;;;;;5027600;28;20616;-78
2022/05/24 04:34:32;;;;;;;32.72;22.60;;;13.80;99.90;;;;;;5028773;28;20465;-77
2022/05/24 04:36:58;;;;;;;31.13;22.08;;;13.80;99.90;;;;;;5025862;28;20050;-77
2022/05/24 04:39:23;;;;;;;30.92;21.00;;;13.80;99.90;;;;;;5029232;28;20191;-77
2022/05/24 04:44:33;;;;;;;28.48;21.23;;;14.00;99.90;;;;;;5023625;28;20412;-77
2022/05/24 04:47:07;;;;;;;29.38;21.67;;;13.90;99.90;;;;;;5023589;28;20054;-77
2022/05/24 04:49:34;;;;;;;30.42;20.02;;;13.90;99.90;;;;;;5030377;28;20171;-77
2022/05/24 04:51:59;;;;;;;29.83;19.42;;;13.90;99.90;;;;;;5028157;28;20060;-77
2022/05/24 04:54:26;;;;;;;28.15;18.95;;;13.90;99.90;;;;;;5025308;28;20053;-77
2022/05/24 04:56:51;;;;;;;27.55;19.33;;;14.00;99.90;;;;;;5029410;28;20052;-77
2022/05/24 04:59:17;;;;;;;29.00;19.13;;;14.00;99.90;;;;;;5028179;28;20053;-76
2022/05/24 05:01:43;;;;;;;25.80;19.30;;;14.00;99.90;;;;;;5028409;28;20034;-76
2022/05/24 05:04:09;;;;;;;26.23;18.52;;;14.00;99.90;;;;;;5026002;28;20041;-77
2022/05/24 05:06:35;;;;;;;26.17;17.90;;;14.10;99.90;;;;;;5025051;28;20063;-76
2022/05/24 05:09:01;;;;;;;24.23;18.10;;;14.10;99.90;;;;;;5026755;28;20129;-77
2022/05/24 05:11:26;;;;;;;29.17;18.98;;;14.10;99.90;;;;;;5053424;28;20065;-78
2022/05/24 05:13:52;;;;;;;28.45;18.83;;;14.10;99.90;;;;;;5027894;28;20037;-77
2022/05/24 05:16:18;;;;;;;25.83;17.77;;;14.10;99.90;;;;;;5026844;28;20057;-75
2022/05/24 05:18:43;;;;;;;27.35;18.67;;;14.20;99.90;;;;;;5024395;28;20033;-79
2022/05/24 05:21:09;;;;;;;27.33;17.20;;;14.20;99.90;;;;;;5028258;28;20045;-87
2022/05/24 05:23:35;;;;;;;27.40;17.88;;;14.20;99.90;;;;;;5020417;28;20050;-80
2022/05/24 05:26:01;;;;;;;25.98;16.15;;;14.20;99.90;;;;;;5016487;28;20462;-79
2022/05/24 05:28:26;;;;;;;22.98;16.77;;;14.20;99.90;;;;;;5027743;28;20050;-80
2022/05/24 05:33:36;;;;;;;22.90;15.75;;;14.20;99.90;;;;;;5029581;28;20061;-81
2022/05/24 05:36:02;;;;;;;24.77;16.10;;;14.20;99.90;;;;;;5055501;28;20046;-81
2022/05/24 05:38:28;;;;;;;24.10;16.65;;;14.20;99.90;;;;;;5024482;28;20034;-81
2022/05/24 05:40:54;;;;;;;26.35;17.10;;;14.20;99.90;;;;;;5025802;28;20049;-81
2022/05/24 05:43:20;;;;;;;29.13;17.38;;;14.20;99.90;;;;;;5039930;28;20069;-82
2022/05/24 05:45:59;;;;;;;26.63;16.35;;;14.20;99.90;;;;;;5026803;28;20081;-79
2022/05/24 05:48:25;;;;;;;26.52;16.95;;;14.30;99.90;;;;;;5031327;28;20053;-79
2022/05/24 05:50:51;;;;;;;27.20;17.90;;;14.30;99.90;;;;;;5022130;28;20061;-80
2022/05/24 05:53:19;;;;;;;29.48;18.70;;;14.30;99.90;;;;;;5026440;28;20068;-79
2022/05/24 05:55:51;;;;;;;28.00;19.30;;;14.20;99.90;;;;;;5073531;27;20762;-77
2022/05/24 05:58:16;;;;;;;31.55;20.95;;;14.20;99.90;;;;;;5076055;28;20060;-78
2022/05/24 06:00:42;;;;;;;32.40;19.08;;;14.20;99.90;;;;;;5075490;28;20059;-77
2022/05/24 06:03:08;;;;;;;30.15;19.08;;;14.30;99.90;;;;;;5078857;28;20223;-77
2022/05/24 06:05:34;;;;;;;31.77;18.33;;;14.30;99.90;;;;;;5081239;28;20449;-77
2022/05/24 06:08:01;;;;;;;26.58;17.40;;;14.20;99.90;;;;;;5076725;28;20044;-77
2022/05/24 06:10:28;;;;;;;29.52;17.40;;;14.30;99.90;;;;;;5079654;28;20036;-77
2022/05/24 06:12:55;;;;;;;27.08;18.45;;;14.30;99.90;;;;;;5078253;28;20059;-77
2022/05/24 06:15:21;;;;;;;29.27;17.70;;;14.40;99.90;;;;;;5071156;28;20056;-78
2022/05/24 06:17:52;;;;;;;25.63;17.52;;;14.40;99.90;;;;;;5073919;28;20399;-78
2022/05/24 06:20:20;;;;;;;31.02;17.90;;;14.50;99.90;;;;;;5072916;28;20090;-77
2022/05/24 06:22:46;;;;;;;25.77;16.08;;;14.60;99.90;;;;;;5081105;28;20059;-74
2022/05/24 06:25:12;;;;;;;26.27;16.23;;;14.60;99.90;;;;;;5067771;28;20093;-78
2022/05/24 06:27:38;;;;;;;24.33;16.35;;;14.70;99.90;;;;;;5076767;28;20048;-78
2022/05/24 06:30:05;;;;;;;24.38;16.38;;;14.70;99.90;;;;;;5080438;28;20156;-78
2022/05/24 06:32:30;;;;;;;24.95;15.77;;;14.70;99.90;;;;;;5082697;28;20122;-77
2022/05/24 06:34:56;;;;;;;25.02;14.13;;;14.70;99.90;;;;;;5079415;28;20052;-78
2022/05/24 06:37:22;;;;;;;23.38;14.98;;;14.70;99.90;;;;;;5081851;28;20162;-78
2022/05/24 06:39:49;;;;;;;22.90;14.00;;;14.80;99.90;;;;;;5077941;28;20079;-78
2022/05/24 06:42:14;;;;;;;22.50;14.90;;;14.80;99.90;;;;;;5082283;28;20373;-78
2022/05/24 06:44:40;;;;;;;24.13;14.60;;;14.80;99.90;;;;;;5086294;28;20055;-78
2022/05/24 06:47:06;;;;;;;22.58;14.20;;;14.80;99.90;;;;;;5087496;28;20515;-78
2022/05/24 06:49:32;;;;;;;17.63;13.40;;;14.80;99.90;;;;;;5083847;28;20090;-78
2022/05/24 06:51:58;;;;;;;22.08;13.50;;;14.90;99.90;;;;;;5087457;28;20537;-78
2022/05/24 06:54:24;;;;;;;18.20;13.45;;;14.90;99.90;;;;;;5077865;28;20066;-78
2022/05/24 06:56:50;;;;;;;19.23;13.13;;;14.90;99.90;;;;;;5083397;28;20495;-80
2022/05/24 07:04:44;;;;;;;23.63;12.30;;;14.80;99.90;;;;;;5067753;28;20048;-80
2022/05/24 07:07:09;;;;;;;20.05;13.27;;;14.90;99.90;;;;;;5072540;28;20045;-80
2022/05/24 07:09:35;;;;;;;21.77;13.25;;;14.90;99.90;;;;;;5065882;28;20040;-79
2022/05/24 07:12:02;;;;;;;23.02;12.73;;;14.90;99.90;;;;;;5051228;28;20060;-80
2022/05/24 07:14:28;;;;;;;16.85;11.63;;;14.80;99.90;;;;;;5053062;28;20048;-80
2022/05/24 07:16:53;;;;;;;18.38;12.25;;;14.80;99.90;;;;;;5053305;28;20095;-80
2022/05/24 07:19:20;;;;;;;18.85;12.45;;;14.80;99.90;;;;;;5051183;28;20390;-80
2022/05/24 07:21:45;;;;;;;17.85;11.93;;;14.70;99.90;;;;;;5051725;28;20060;-79
2022/05/24 07:24:11;;;;;;;21.90;12.60;;;14.70;99.90;;;;;;5052880;28;20053;-80
2022/05/24 07:26:38;;;;;;;23.77;11.82;;;14.80;99.90;;;;;;5068188;28;20631;-80
2022/05/24 07:29:06;;;;;;;20.33;11.25;;;14.80;99.90;;;;;;5067948;28;20068;-80
2022/05/24 07:31:32;;;;;;;21.15;11.90;;;14.80;99.90;;;;;;5065745;28;20518;-79
2022/05/24 07:34:01;;;;;;;19.90;11.57;;;14.70;99.90;;;;;;5066505;28;20044;-80
2022/05/24 07:36:27;;;;;;;19.98;12.07;;;14.70;99.90;;;;;;5063019;28;20048;-80
2022/05/24 07:38:53;;;;;;;18.70;11.90;;;14.60;99.90;;;;;;5071758;28;20453;-80
2022/05/24 07:46:47;;;;;;;17.08;12.55;;;14.50;99.90;;;;;;5068087;28;20471;-80
2022/05/24 07:49:12;;;;;;;21.67;12.02;;;14.50;99.90;;;;;;5068399;28;20049;-79
2022/05/24 07:51:38;;;;;;;16.13;10.57;;;14.50;99.90;;;;;;5052329;28;20095;-80
2022/05/24 07:54:03;;;;;;;20.77;10.68;;;14.50;99.90;;;;;;5052193;28;20147;-80
2022/05/24 07:56:30;;;;;;;21.13;11.35;;;14.50;99.90;;;;;;5055409;28;20041;-80
2022/05/24 07:58:55;;;;;;;20.58;11.48;;;14.50;99.90;;;;;;5050904;28;20051;-79
2022/05/24 08:01:23;;;;;;;16.98;11.10;;;14.50;99.90;;;;;;5052059;28;20049;-79
2022/05/24 08:03:49;;;;;;;18.88;11.98;;;14.50;99.90;;;;;;5066506;28;20154;-80
2022/05/24 08:06:15;;;;;;;19.23;11.68;;;14.60;99.90;;;;;;5072607;28;20505;-79
2022/05/24 08:08:41;;;;;;;19.55;11.32;;;14.60;99.90;;;;;;5056897;28;20127;-79
2022/05/24 08:11:07;;;;;;;22.05;11.65;;;14.60;99.90;;;;;;5052111;28;20178;-79
2022/05/24 08:13:33;;;;;;;16.80;10.25;;;14.70;99.90;;;;;;5051937;28;20084;-80
2022/05/24 08:15:58;;;;;;;19.08;11.23;;;14.70;99.90;;;;;;5050616;28;20052;-80
2022/05/24 08:18:24;;;;;;;19.98;10.40;;;14.80;99.90;;;;;;5051319;28;20041;-79
2022/05/24 08:20:52;;;;;;;16.85;10.30;;;14.80;99.90;;;;;;5051326;28;20048;-79
2022/05/24 08:23:19;;;;;;;19.58;10.98;;;14.80;99.90;;;;;;5047802;28;20066;-80
2022/05/24 08:25:44;;;;;;;15.35;10.38;;;14.90;99.90;;;;;;5049125;28;20049;-80
2022/05/24 08:28:10;;;;;;;18.38;9.98;;;15.00;99.90;;;;;;5049565;28;20049;-80
2022/05/24 08:30:38;;;;;;;24.88;11.02;;;15.00;99.90;;;;;;5068975;28;20043;-80
2022/05/24 08:33:04;;;;;;;17.08;10.32;;;15.10;99.90;;;;;;5070837;28;20067;-80
2022/05/24 08:35:32;;;;;;;17.33;11.05;;;15.10;99.90;;;;;;5064680;28;20052;-79
2022/05/24 08:37:58;;;;;;;18.15;10.27;;;15.10;99.90;;;;;;5058621;28;20124;-79
2022/05/24 08:40:24;;;;;;;18.63;11.85;;;15.20;99.90;;;;;;5060579;28;20131;-79
2022/05/24 08:43:22;;;;;;;16.13;10.90;;;15.40;99.90;;;;;;5067766;28;20076;-79
2022/05/24 08:48:55;;;;;;;19.38;10.50;;;15.90;99.90;;;;;;5057579;28;20087;-77
2022/05/24 08:51:28;;;;;;;16.45;10.25;;;16.20;99.90;;;;;;5071244;28;20047;-77
2022/05/24 08:54:15;;;;;;;15.43;9.77;;;16.50;99.90;;;;;;5067296;28;20092;-77
2022/05/24 08:56:52;;;;;;;17.35;9.30;;;16.70;99.90;;;;;;5069280;28;20063;-78
2022/05/24 08:59:28;;;;;;;15.80;8.30;;;16.70;99.90;;;;;;5055861;28;20136;-77
2022/05/24 09:01:56;;;;;;;14.65;9.35;;;16.70;99.90;;;;;;5049758;28;20061;-77
2022/05/24 09:04:22;;;;;;;13.32;9.07;;;16.80;99.90;;;;;;5049662;28;20512;-77
2022/05/24 09:06:56;;;;;;;17.00;8.68;;;16.80;99.90;;;;;;5051765;28;20044;-78
2022/05/24 09:09:37;;;;;;;15.80;8.95;;;16.80;99.90;;;;;;5071329;28;20059;-77
2022/05/24 09:12:16;;;;;;;13.35;8.57;;;16.60;99.90;;;;;;5051683;28;20079;-77
2022/05/24 09:15:10;;;;;;;13.20;7.85;;;16.30;99.90;;;;;;5049509;28;20124;-77
2022/05/24 09:18:20;;;;;;;15.02;8.32;;;16.10;99.90;;;;;;5050765;28;20067;-77
2022/05/24 09:20:47;;;;;;;13.77;7.70;;;16.00;99.90;;;;;;5049399;28;20055;-77
2022/05/24 09:23:39;;;;;;;11.70;7.80;;;16.10;99.90;;;;;;5047068;28;20033;-77
2022/05/24 09:26:11;;;;;;;9.93;6.30;;;16.10;99.90;;;;;;5049254;28;20060;-78
2022/05/24 09:28:57;;;;;;;10.35;5.75;;;16.10;99.90;;;;;;5053965;28;20369;-77
2022/05/24 09:31:38;;;;;;;8.20;5.20;;;16.10;99.90;;;;;;5080539;28;20040;-77
2022/05/24 09:34:25;;;;;;;9.02;4.80;;;16.30;99.90;;;;;;5055906;28;20047;-77
2022/05/24 09:37:23;;;;;;;5.22;1.77;;;16.50;99.90;;;;;;5048492;28;20447;-77
2022/05/24 09:40:18;;;;;;;2.22;1.10;;;16.40;99.90;;;;;;5062532;28;20517;-78
2022/05/24 09:42:44;;;;;;;2.73;1.10;;;16.10;99.90;;;;;;5065671;28;20067;-77
2022/05/24 09:45:15;;;;;;;2.15;0.70;;;15.80;99.90;;;;;;5068843;28;20045;-77
2022/05/24 09:47:43;;;;;;;6.43;0.55;;;15.50;99.90;;;;;;5056614;28;20056;-78
2022/05/24 09:50:18;;;;;;;3.70;0.90;;;15.20;99.90;;;;;;5049566;28;20052;-78
2022/05/24 09:53:02;;;;;;;3.00;0.90;;;14.90;99.90;;;;;;5052364;28;20049;-79
2022/05/24 09:55:29;;;;;;;3.13;0.95;;;14.60;99.90;;;;;;5061728;28;20061;-78
2022/05/24 09:58:30;;;;;;;5.13;0.70;;;14.40;99.90;;;;;;5069236;28;20076;-78
2022/05/24 10:01:10;;;;;;;4.25;1.30;;;14.30;99.90;;;;;;5056635;28;20065;-78
2022/05/24 10:03:37;;;;;;;3.03;0.80;;;14.20;99.90;;;;;;5047834;28;20499;-78
2022/05/24 10:06:25;;;;;;;1.30;0.60;;;14.20;99.90;;;;;;5062865;28;20510;-78
2022/05/24 10:08:54;;;;;;;4.85;1.48;;;14.20;99.90;;;;;;5068339;28;20052;-78
2022/05/24 10:11:47;;;;;;;1.95;1.00;;;14.20;99.90;;;;;;5060205;28;20056;-78
2022/05/24 10:14:37;;;;;;;5.05;1.25;;;14.40;99.90;;;;;;5055332;28;20132;-78
2022/05/24 10:17:14;;;;;;;2.92;1.08;;;14.60;99.90;;;;;;5050278;28;20338;-78
2022/05/24 10:20:05;;;;;;;3.45;1.30;;;14.70;99.90;;;;;;5049094;28;20048;-78
2022/05/24 10:22:42;;;;;;;4.00;1.85;;;14.90;99.90;;;;;;5050351;28;20052;-78
2022/05/24 10:25:40;;;;;;;4.18;1.90;;;15.10;99.90;;;;;;5055613;28;20368;-78
2022/05/24 10:28:09;;;;;;;7.10;2.00;;;15.40;99.90;;;;;;5065156;28;20568;-77
2022/05/24 10:31:10;;;;;;;4.30;2.15;;;15.70;99.90;;;;;;5078388;28;20048;-78
2022/05/24 10:39:52;;;;;;;15.15;1.83;;;16.00;99.90;;;;;;5054096;28;20083;-77
2022/05/24 10:43:10;;;;;;;5.35;1.10;;;15.60;99.90;;;;;;5071142;28;20051;-76
2022/05/24 10:45:58;;;;;;;3.88;0.70;;;15.00;99.90;;;;;;4984234;28;20128;-77
2022/05/24 10:48:48;;;;;;;2.47;0.60;;;14.40;99.90;;;;;;5072343;28;20052;-77
2022/05/24 10:51:25;;;;;;;3.22;0.70;;;14.10;99.90;;;;;;5066485;28;20131;-77
2022/05/24 10:54:03;;;;;;;4.78;0.75;;;13.70;99.90;;;;;;5067220;28;20083;-77
2022/05/24 10:56:41;;;;;;;3.13;0.85;;;13.50;99.90;;;;;;5070598;28;20422;-76
2022/05/24 10:59:22;;;;;;;2.90;0.55;;;13.40;99.90;;;;;;5053657;28;20099;-77
2022/05/24 11:01:59;;;;;;;3.33;0.60;;;13.30;99.90;;;;;;5053584;28;20068;-77
2022/05/24 11:04:37;;;;;;;3.85;0.73;;;13.20;99.90;;;;;;5053768;28;20431;-77
2022/05/24 11:07:11;;;;;;;3.72;0.80;;;13.30;99.90;;;;;;5052959;28;20512;-77
2022/05/24 11:09:50;;;;;;;1.13;0.50;;;13.40;99.90;;;;;;5056546;28;20059;-75
2022/05/24 11:12:24;;;;;;;3.78;0.70;;;13.50;99.90;;;;;;5053687;28;20045;-75
2022/05/24 11:15:04;;;;;;;5.55;0.70;;;13.70;99.90;;;;;;5053268;28;20123;-75
2022/05/24 11:17:29;;;;;;;3.60;0.90;;;13.90;99.90;;;;;;5052333;28;20439;-76
2022/05/24 11:19:56;;;;;;;2.17;0.85;;;14.10;99.90;;;;;;5053072;28;20044;-75
2022/05/24 11:22:39;;;;;;;2.42;0.85;;;14.20;99.90;;;;;;5071993;28;20040;-75
2022/05/24 11:25:20;;;;;;;4.03;1.20;;;14.20;99.90;;;;;;5047713;28;20056;-76
2022/05/24 11:28:17;;;;;;;2.15;1.10;;;14.30;99.90;;;;;;5101886;27;20040;-76
2022/05/24 11:30:43;;;;;;;8.18;1.50;;;14.40;99.90;;;;;;5086288;28;20063;-76
2022/05/24 11:33:13;;;;;;;3.10;1.42;;;14.40;99.90;;;;;;5071864;28;20036;-77
2022/05/24 11:35:50;;;;;;;3.53;1.73;;;14.50;99.90;;;;;;5065278;28;20098;-77
2022/05/24 11:38:20;;;;;;;5.03;2.05;;;14.60;99.90;;;;;;5065965;28;20047;-76
2022/05/24 11:40:56;;;;;;;6.60;2.30;;;14.70;99.90;;;;;;5061116;28;20053;-75
2022/05/24 11:43:43;;;;;;;4.40;2.00;;;14.70;99.90;;;;;;5079582;28;20052;-79
2022/05/24 11:46:41;;;;;;;3.28;1.85;;;14.80;99.90;;;;;;5076266;28;20052;-77
2022/05/24 11:49:24;;;;;;;7.10;2.55;;;15.00;99.90;;;;;;5062850;28;20086;-78
2022/05/24 11:51:51;;;;;;;4.00;1.77;;;15.40;99.90;;;;;;5062700;28;20068;-77
2022/05/24 11:54:27;;;;;;;5.93;2.15;;;15.60;99.90;;;;;;5057752;28;20060;-78
2022/05/24 11:57:02;;;;;;;5.38;2.25;;;15.80;99.90;;;;;;5064747;28;20400;-78
2022/05/24 11:59:40;;;;;;;3.75;1.70;;;16.00;99.90;;;;;;5070830;28;20071;-77
2022/05/24 12:07:54;;;;;;;5.45;1.80;;;16.00;99.90;;;;;;5071231;28;20079;-78
2022/05/24 12:08:28;;;;;;;3.50;1.50;;;15.90;99.90;;;;;;5063142;28;20053;-78
2022/05/24 12:11:05;;;;;;;4.35;1.55;;;15.80;99.90;;;;;;5072163;28;20505;-78
2022/05/24 12:13:33;;;;;;;5.95;1.80;;;15.80;99.90;;;;;;5050075;28;20133;-77
2022/05/24 12:16:02;;;;;;;3.67;1.60;;;15.60;99.90;;;;;;5051856;28;20044;-82
2022/05/24 12:18:42;;;;;;;3.30;1.33;;;15.60;99.90;;;;;;5073278;28;20365;-80
2022/05/24 12:21:08;;;;;;;5.13;1.63;;;15.60;99.90;;;;;;5079588;28;20060;-80
2022/05/24 12:23:40;;;;;;;2.67;1.30;;;15.80;99.90;;;;;;5065679;28;20044;-80
2022/05/24 12:26:15;;;;;;;3.75;0.90;;;15.90;99.90;;;;;;5081468;28;20391;-80
2022/05/24 12:28:54;;;;;;;4.68;1.30;;;15.90;99.90;;;;;;5085045;28;20098;-79
2022/05/24 12:31:22;;;;;;;2.95;0.77;;;16.00;99.90;;;;;;5075919;28;20055;-80
2022/05/24 12:33:51;;;;;;;2.95;1.13;;;16.20;99.90;;;;;;5064965;28;20056;-82
2022/05/24 12:36:22;;;;;;;2.47;0.98;;;16.20;99.90;;;;;;5069986;28;20040;-89
2022/05/24 12:38:56;;;;;;;3.33;0.90;;;16.20;99.90;;;;;;5072628;28;20041;-87
2022/05/24 12:41:27;;;;;;;2.67;0.90;;;16.30;99.90;;;;;;5070635;28;20044;-87
2022/05/24 12:43:56;;;;;;;2.47;0.50;;;16.50;99.90;;;;;;5066882;28;20103;-84
2022/05/24 12:46:23;;;;;;;2.03;0.40;;;16.60;99.90;;;;;;5076126;28;20071;-84
2022/05/24 12:48:56;;;;;;;5.18;0.90;;;16.60;99.90;;;;;;5075488;28;20081;-86
2022/05/24 12:51:21;;;;;;;3.60;0.38;;;16.10;99.90;;;;;;5065278;28;20041;-87
2022/05/24 12:53:47;;;;;;;1.30;0.40;;;15.70;99.90;;;;;;5071926;28;20376;-87
2022/05/24 12:56:19;;;;;;;1.08;0.20;;;15.30;99.90;;;;;;5067862;28;20511;-88
2022/05/24 12:58:48;;;;;;;4.90;0.70;;;15.10;99.90;;;;;;5070042;28;20043;-88
2022/05/24 13:01:21;;;;;;;1.65;0.50;;;15.00;99.90;;;;;;5071276;28;20048;-89
2022/05/24 13:03:55;;;;;;;3.15;0.50;;;15.10;99.90;;;;;;5069979;28;20051;-88
2022/05/24 13:06:23;;;;;;;1.52;0.65;;;15.20;99.90;;;;;;5070160;28;20040;-88
2022/05/24 13:09:24;;;;;;;3.38;0.70;;;15.40;99.90;;;;;;5069619;28;20500;-88
2022/05/24 13:12:03;;;;;;;3.35;0.70;;;15.70;99.90;;;;;;5066471;28;20501;-79
2022/05/24 13:14:44;;;;;;;2.67;0.70;;;16.00;99.90;;;;;;5066054;28;20499;-81
2022/05/24 13:17:10;;;;;;;2.60;0.75;;;16.20;99.90;;;;;;5070778;28;20063;-82
2022/05/24 13:20:00;;;;;;;4.28;0.90;;;16.30;99.90;;;;;;5072428;28;20048;-82
2022/05/24 13:22:41;;;;;;;3.10;0.80;;;16.50;99.90;;;;;;5068029;28;20044;-80
2022/05/24 13:25:14;;;;;;;4.15;0.90;;;16.60;99.90;;;;;;5063748;28;20036;-80
2022/05/24 13:28:00;;;;;;;6.53;0.68;;;16.60;99.90;;;;;;5072008;28;20108;-81
2022/05/24 13:33:37;;;;;;;5.13;0.77;;;16.40;99.90;;;;;;5073305;28;20407;-81
2022/05/24 13:36:21;;;;;;;3.03;0.63;;;16.20;99.90;;;;;;5070439;28;20076;-81
2022/05/24 13:39:10;;;;;;;4.20;1.48;;;16.00;99.90;;;;;;5069746;28;20037;-82
2022/05/24 13:41:52;;;;;;;3.70;1.10;;;15.80;99.90;;;;;;5072659;28;20054;-82